Brownlee, Nebraska
Current Conditions -  °F | °C
As of 7:15 PM on Tuesday 27 Jan 2015 (Local Time) from KTIF Reporting Station
Clear Clear  
Wind Chill: 51°   Ceiling: Unl
Heat Index: 51°   Visibility: 10mi
Dew Point: 33°   Wind: 3mph
Humidity: 49%   Direction: 290°WNW
Pressure: 29.91"   Gusts: NA
Location:  41.9263°N, 100.558°W
Report Text: KTIF 280115Z AUTO 29003KT 10SM CLR 11/01 A2991 RMK AO2 T01080005
Loading
Personal Weather Stations






























Interactive Weather Map New forecast layout! Learn more

10-Day Weather Forecast

Advertisements
Track Severe Weather on mobile